createdAt,value
2023-05-22T00:03:29.412Z,3.38
2023-05-22T00:07:30.987Z,3.38
2023-05-22T00:11:34.732Z,3.80
2023-05-22T00:15:36.157Z,3.60
2023-05-22T00:19:38.185Z,3.55
2023-05-22T00:23:39.718Z,3.40
2023-05-22T00:27:41.206Z,3.50
2023-05-22T00:31:42.667Z,3.20
2023-05-22T00:35:44.256Z,3.72
2023-05-22T00:39:46.318Z,3.17
2023-05-22T00:43:48.012Z,3.63
2023-05-22T00:47:50.213Z,3.13
2023-05-22T00:51:51.780Z,3.50
2023-05-22T00:55:54.026Z,3.60
2023-05-22T00:59:56.265Z,3.40
2023-05-22T01:03:57.879Z,3.58
2023-05-22T01:07:59.400Z,3.05
2023-05-22T01:12:19.130Z,2.92
2023-05-22T01:16:32.133Z,3.03
2023-05-22T01:20:48.892Z,2.63
2023-05-22T01:25:21.077Z,3.03
2023-05-22T01:29:30.869Z,2.90
2023-05-22T01:33:41.803Z,3.47
2023-05-22T01:37:45.121Z,3.55
2023-05-22T01:41:47.209Z,3.22
2023-05-22T01:45:49.309Z,3.10
2023-05-22T01:49:51.963Z,3.00
2023-05-22T01:53:59.136Z,2.65
2023-05-22T01:58:17.531Z,3.38
2023-05-22T02:02:21.211Z,3.05
2023-05-22T02:06:24.987Z,2.78
2023-05-22T02:10:29.137Z,3.53
2023-05-22T02:14:31.560Z,3.17
2023-05-22T02:18:33.619Z,3.95
2023-05-22T02:22:35.075Z,3.42
2023-05-22T02:26:37.216Z,3.60
2023-05-22T02:30:38.938Z,3.30
2023-05-22T02:34:40.568Z,3.33
2023-05-22T02:38:42.060Z,3.10
2023-05-22T02:42:43.493Z,3.60
2023-05-22T02:46:45.697Z,4.28
2023-05-22T02:50:48.754Z,3.53
2023-05-22T02:54:50.265Z,4.00
2023-05-22T02:58:51.750Z,4.30
2023-05-22T03:02:53.364Z,3.45
2023-05-22T03:06:55.384Z,3.13
2023-05-22T03:10:57.693Z,3.67
2023-05-22T03:14:59.312Z,3.28
2023-05-22T03:19:11.007Z,3.30
2023-05-22T03:23:13.357Z,3.83
2023-05-22T03:27:17.050Z,3.97
2023-05-22T03:31:18.576Z,4.60
2023-05-22T03:35:20.078Z,3.95
2023-05-22T03:39:21.562Z,4.03
2023-05-22T03:43:23.029Z,4.15
2023-05-22T03:47:24.541Z,3.97
2023-05-22T03:51:26.106Z,3.53
2023-05-22T03:55:27.584Z,4.22
2023-05-22T03:59:29.075Z,3.70
2023-05-22T04:03:30.654Z,3.22
2023-05-22T04:07:32.579Z,3.60
2023-05-22T04:11:34.058Z,3.60
2023-05-22T04:15:36.450Z,3.40
2023-05-22T04:19:38.018Z,3.53
2023-05-22T04:23:43.168Z,3.50
2023-05-22T04:27:44.657Z,4.03
2023-05-22T04:31:46.253Z,2.92
2023-05-22T04:35:48.214Z,3.85
2023-05-22T04:39:52.873Z,4.00
2023-05-22T04:43:54.716Z,3.15
2023-05-22T04:47:57.048Z,3.83
2023-05-22T04:51:58.794Z,3.55
2023-05-22T04:56:00.827Z,4.05
2023-05-22T05:00:04.365Z,3.90
2023-05-22T05:04:06.101Z,3.53
2023-05-22T05:08:07.810Z,4.28
2023-05-22T05:12:09.342Z,4.50
2023-05-22T05:16:11.371Z,3.25
2023-05-22T05:20:14.504Z,3.80
2023-05-22T05:24:19.723Z,3.47
2023-05-22T05:28:21.297Z,3.65
2023-05-22T05:32:22.888Z,4.07
2023-05-22T05:36:28.243Z,3.85
2023-05-22T05:40:29.702Z,4.13
2023-05-22T05:44:31.291Z,3.83
2023-05-22T05:48:32.841Z,4.07
2023-05-22T05:52:34.438Z,3.90
2023-05-22T05:56:36.389Z,4.05
2023-05-22T06:00:39.132Z,4.70
2023-05-22T06:04:42.085Z,4.15
2023-05-22T06:08:44.189Z,4.32
2023-05-22T06:12:46.073Z,3.88
2023-05-22T06:16:47.756Z,4.18
2023-05-22T06:20:49.325Z,3.92
2023-05-22T06:24:51.243Z,4.15
2023-05-22T06:28:54.115Z,4.03
2023-05-22T06:32:55.723Z,3.85
2023-05-22T06:36:57.295Z,4.40
2023-05-22T06:40:58.839Z,3.92
2023-05-22T06:45:00.316Z,4.03
2023-05-22T06:49:02.084Z,6.22
2023-05-22T06:53:03.570Z,4.60
2023-05-22T06:57:06.984Z,3.78
2023-05-22T07:01:08.464Z,4.97
2023-05-22T07:05:09.994Z,4.55
2023-05-22T07:09:12.207Z,3.63
2023-05-22T07:13:13.769Z,4.88
2023-05-22T07:17:15.270Z,5.30
2023-05-22T07:21:16.858Z,4.05
2023-05-22T07:25:18.338Z,4.57
2023-05-22T07:29:21.936Z,4.05
2023-05-22T07:33:25.772Z,4.30
2023-05-22T07:37:27.271Z,4.32
2023-05-22T07:41:28.861Z,3.80
2023-05-22T07:45:30.803Z,4.22
2023-05-22T07:49:32.908Z,4.28
2023-05-22T07:53:35.472Z,3.75
2023-05-22T07:57:37.012Z,4.55
2023-05-22T08:01:39.656Z,4.35
2023-05-22T08:05:41.184Z,3.97
2023-05-22T08:09:45.973Z,3.50
2023-05-22T08:13:47.761Z,4.40
2023-05-22T08:17:49.455Z,3.80
2023-05-22T08:21:57.879Z,4.22
2023-05-22T08:25:59.392Z,3.83
2023-05-22T08:30:02.238Z,3.80
2023-05-22T08:34:04.862Z,3.50
2023-05-22T08:38:06.497Z,3.47
2023-05-22T08:42:08.272Z,3.78
2023-05-22T08:46:10.490Z,3.40
2023-05-22T08:50:12.414Z,3.67
2023-05-22T08:54:18.471Z,2.97
2023-05-22T08:58:21.837Z,3.67
2023-05-22T09:02:24.262Z,3.30
2023-05-22T09:06:26.271Z,3.80
2023-05-22T09:10:27.761Z,3.00
2023-05-22T09:14:38.297Z,3.50
2023-05-22T09:18:41.224Z,3.17
2023-05-22T09:22:42.711Z,3.55
2023-05-22T09:26:44.240Z,3.30
2023-05-22T09:30:49.565Z,3.22
2023-05-22T09:34:51.389Z,2.97
2023-05-22T09:38:54.075Z,3.20
2023-05-22T09:42:55.683Z,3.30
2023-05-22T09:46:57.352Z,5.30
2023-05-22T09:51:00.203Z,3.42
2023-05-22T09:55:09.413Z,2.90
2023-05-22T09:59:13.742Z,3.50
2023-05-22T10:03:17.306Z,2.45
2023-05-22T10:07:30.088Z,2.53
2023-05-22T10:11:33.375Z,3.40
2023-05-22T10:15:35.921Z,2.42
2023-05-22T10:19:40.442Z,2.70
2023-05-22T10:23:44.229Z,2.83
2023-05-22T10:27:46.062Z,2.70
2023-05-22T10:31:53.489Z,2.60
2023-05-22T10:36:08.630Z,2.60
2023-05-22T10:40:13.431Z,2.30
2023-05-22T10:44:14.994Z,2.95
2023-05-22T10:48:22.143Z,2.50
2023-05-22T10:52:23.642Z,3.00
2023-05-22T10:56:32.950Z,3.42
2023-05-22T11:00:38.001Z,2.65
2023-05-22T11:04:39.555Z,3.00
2023-05-22T11:08:41.124Z,2.90
2023-05-22T11:12:43.977Z,2.40
2023-05-22T11:16:45.744Z,4.35
2023-05-22T11:20:47.688Z,2.65
2023-05-22T11:24:49.213Z,2.65
2023-05-22T11:28:53.298Z,2.80
2023-05-22T11:32:54.812Z,2.78
2023-05-22T11:37:00.053Z,2.97
2023-05-22T11:41:01.554Z,2.55
2023-05-22T11:45:04.679Z,3.40
2023-05-22T11:49:06.586Z,2.80
2023-05-22T11:53:08.216Z,2.88
2023-05-22T11:57:09.895Z,2.75
2023-05-22T12:01:11.486Z,2.50
2023-05-22T12:05:13.936Z,2.38
2023-05-22T12:09:15.491Z,3.55
2023-05-22T12:13:24.982Z,4.45
2023-05-22T12:17:28.631Z,4.28
2023-05-22T12:21:31.547Z,3.95
2023-05-22T12:25:37.030Z,2.72
2023-05-22T12:29:39.629Z,2.60
2023-05-22T12:33:41.193Z,2.53
2023-05-22T12:37:51.748Z,2.63
2023-05-22T12:41:53.404Z,3.00
2023-05-22T12:45:54.946Z,2.35
2023-05-22T12:49:56.437Z,2.70
2023-05-22T12:53:58.995Z,2.10
2023-05-22T12:58:00.763Z,2.25
2023-05-22T13:02:03.287Z,2.15
2023-05-22T13:06:04.820Z,2.65
2023-05-22T13:10:07.381Z,2.30
2023-05-22T13:14:08.819Z,2.50
2023-05-22T13:18:11.752Z,2.42
2023-05-22T13:22:14.786Z,2.72
2023-05-22T13:26:16.270Z,2.13
2023-05-22T13:30:17.921Z,2.35
2023-05-22T13:34:19.572Z,2.35
2023-05-22T13:38:21.240Z,1.98
2023-05-22T13:42:22.792Z,2.38
2023-05-22T13:46:24.336Z,2.25
2023-05-22T13:50:25.847Z,2.20
2023-05-22T13:54:27.824Z,2.20
2023-05-22T13:58:29.314Z,2.40
2023-05-22T14:02:30.852Z,2.15
2023-05-22T14:06:32.530Z,2.50
2023-05-22T14:10:35.796Z,2.00
2023-05-22T14:14:37.275Z,2.17
2023-05-22T14:18:41.402Z,2.20
2023-05-22T14:22:56.031Z,2.35
2023-05-22T14:26:58.625Z,2.40
2023-05-22T14:31:00.157Z,2.35
2023-05-22T14:35:01.797Z,2.17
2023-05-22T14:39:03.290Z,2.78
2023-05-22T14:43:04.766Z,3.13
2023-05-22T14:47:06.329Z,2.40
2023-05-22T14:51:07.855Z,2.75
2023-05-22T14:55:09.688Z,2.65
2023-05-22T14:59:14.348Z,2.72
2023-05-22T15:03:16.767Z,2.70
2023-05-22T15:07:19.746Z,2.30
2023-05-22T15:11:21.941Z,2.60
2023-05-22T15:15:23.563Z,2.70
2023-05-22T15:19:26.175Z,2.65
2023-05-22T15:23:27.712Z,2.13
2023-05-22T15:27:29.238Z,2.65
2023-05-22T15:31:31.541Z,2.95
2023-05-22T15:35:33.032Z,2.50
2023-05-22T15:39:34.483Z,2.53
2023-05-22T15:43:36.095Z,2.75
2023-05-22T15:47:37.612Z,2.70
2023-05-22T15:51:39.152Z,2.40
2023-05-22T15:55:40.844Z,3.45
2023-05-22T15:59:42.578Z,2.35
2023-05-22T16:03:44.120Z,2.50
2023-05-22T16:07:45.758Z,3.33
2023-05-22T16:11:47.299Z,2.97
2023-05-22T16:15:48.837Z,2.72
2023-05-22T16:19:51.319Z,2.65
2023-05-22T16:23:52.848Z,3.13
2023-05-22T16:27:54.387Z,3.50
2023-05-22T16:31:56.825Z,2.40
2023-05-22T16:35:58.625Z,2.75
2023-05-22T16:40:00.183Z,2.35
2023-05-22T16:44:01.800Z,2.40
2023-05-22T16:48:03.399Z,2.90
2023-05-22T16:52:05.198Z,2.78
2023-05-22T16:56:06.915Z,3.25
2023-05-22T17:00:10.893Z,3.38
2023-05-22T17:04:14.828Z,3.83
2023-05-22T17:08:16.519Z,5.18
2023-05-22T17:12:18.114Z,3.55
2023-05-22T17:16:19.717Z,2.80
2023-05-22T17:20:22.972Z,2.95
2023-05-22T17:24:24.626Z,3.70
2023-05-22T17:28:28.888Z,3.22
2023-05-22T17:32:30.482Z,2.78
2023-05-22T17:36:32.653Z,3.53
2023-05-22T17:40:44.176Z,3.25
2023-05-22T17:44:46.654Z,2.58
2023-05-22T17:48:48.259Z,2.95
2023-05-22T17:52:49.743Z,4.25
2023-05-22T17:56:51.253Z,2.97
2023-05-22T18:00:53.130Z,3.03
2023-05-22T18:04:54.667Z,3.42
2023-05-22T18:08:56.157Z,3.63
2023-05-22T18:12:57.848Z,3.60
2023-05-22T18:16:59.524Z,3.88
2023-05-22T18:21:02.776Z,3.25
2023-05-22T18:25:05.781Z,3.22
2023-05-22T18:29:07.535Z,3.40
2023-05-22T18:33:09.115Z,3.28
2023-05-22T18:37:10.920Z,4.00
2023-05-22T18:41:12.658Z,3.00
2023-05-22T18:45:14.407Z,2.97
2023-05-22T18:49:16.205Z,3.55
2023-05-22T18:53:18.199Z,3.20
2023-05-22T18:57:19.678Z,3.35
2023-05-22T19:01:21.356Z,2.92
2023-05-22T19:05:23.054Z,3.95
2023-05-22T19:09:24.636Z,4.18
2023-05-22T19:13:26.591Z,4.03
2023-05-22T19:17:28.219Z,3.42
2023-05-22T19:21:29.860Z,3.88
2023-05-22T19:25:32.044Z,3.70
2023-05-22T19:29:33.638Z,3.00
2023-05-22T19:33:35.155Z,3.67
2023-05-22T19:37:36.958Z,3.33
2023-05-22T19:41:38.423Z,3.92
2023-05-22T19:45:40.313Z,3.35
2023-05-22T19:49:41.850Z,4.85
2023-05-22T19:53:44.264Z,6.57
2023-05-22T19:57:45.802Z,5.68
2023-05-22T20:01:48.170Z,4.68
2023-05-22T20:05:53.540Z,3.80
2023-05-22T20:09:55.059Z,5.07
2023-05-22T20:13:56.711Z,4.63
2023-05-22T20:17:58.278Z,7.63
2023-05-22T20:22:00.972Z,5.00
2023-05-22T20:26:02.802Z,4.13
2023-05-22T20:30:04.936Z,7.90
2023-05-22T20:34:08.041Z,6.72
2023-05-22T20:38:09.835Z,3.83
2023-05-22T20:42:12.964Z,4.47
2023-05-22T20:46:14.626Z,4.75
2023-05-22T20:50:16.217Z,6.13
2023-05-22T20:54:18.238Z,4.18
2023-05-22T20:58:19.931Z,4.95
2023-05-22T21:02:21.471Z,3.53
2023-05-22T21:06:27.011Z,3.60
2023-05-22T21:10:28.467Z,3.50
2023-05-22T21:14:30.351Z,3.70
2023-05-22T21:18:31.827Z,3.63
2023-05-22T21:22:33.263Z,3.20
2023-05-22T21:26:36.228Z,3.58
2023-05-22T21:30:37.895Z,3.58
2023-05-22T21:34:39.484Z,3.60
2023-05-22T21:38:41.134Z,3.97
2023-05-22T21:42:47.070Z,3.50
2023-05-22T21:46:48.921Z,3.72
2023-05-22T21:50:50.501Z,3.17
2023-05-22T21:54:51.995Z,3.15
2023-05-22T21:58:53.646Z,3.03
2023-05-22T22:02:57.231Z,3.35
2023-05-22T22:06:58.812Z,3.42
2023-05-22T22:11:00.408Z,3.53
2023-05-22T22:15:02.376Z,3.45
2023-05-22T22:19:04.713Z,3.38
2023-05-22T22:23:06.206Z,3.20
2023-05-22T22:27:07.799Z,3.30
2023-05-22T22:31:09.749Z,3.30
2023-05-22T22:35:11.405Z,3.60
2023-05-22T22:39:12.949Z,3.15
2023-05-22T22:43:14.449Z,3.70
2023-05-22T22:47:15.950Z,3.38
2023-05-22T22:51:17.543Z,3.10
2023-05-22T22:55:19.215Z,3.50
2023-05-22T22:59:21.040Z,3.03
2023-05-22T23:03:22.731Z,3.42
2023-05-22T23:07:24.251Z,3.53
2023-05-22T23:11:28.025Z,3.38
2023-05-22T23:15:29.856Z,3.00
2023-05-22T23:19:31.612Z,3.70
2023-05-22T23:23:33.262Z,3.40
2023-05-22T23:27:34.842Z,3.03
2023-05-22T23:31:36.657Z,2.90
2023-05-22T23:35:38.408Z,3.83
2023-05-22T23:39:39.977Z,3.20
2023-05-22T23:43:42.439Z,3.45
2023-05-22T23:47:43.900Z,3.20
2023-05-22T23:51:45.429Z,3.17
2023-05-22T23:55:46.926Z,3.58
2023-05-22T23:59:48.527Z,3.25
